createdAt,value
2023-03-05T00:01:24.404Z,2.10
2023-03-05T00:03:52.920Z,2.60
2023-03-05T00:06:21.024Z,2.27
2023-03-05T00:08:49.202Z,2.17
2023-03-05T00:11:16.601Z,2.07
2023-03-05T00:13:43.542Z,1.93
2023-03-05T00:16:13.472Z,2.07
2023-03-05T00:18:40.441Z,2.00
2023-03-05T00:21:32.021Z,2.07
2023-03-05T00:24:01.616Z,2.50
2023-03-05T00:26:29.564Z,2.07
2023-03-05T00:28:57.908Z,1.93
2023-03-05T00:31:30.521Z,2.27
2023-03-05T00:34:00.089Z,2.10
2023-03-05T00:36:27.758Z,1.80
2023-03-05T00:38:54.697Z,2.10
2023-03-05T00:41:21.766Z,2.47
2023-03-05T00:43:48.960Z,2.20
2023-03-05T00:46:18.292Z,1.90
2023-03-05T00:48:44.963Z,2.63
2023-03-05T00:51:11.688Z,1.63
2023-03-05T00:53:40.803Z,2.03
2023-03-05T00:56:07.515Z,2.40
2023-03-05T00:58:36.236Z,3.03
2023-03-05T01:01:03.909Z,2.97
2023-03-05T01:03:32.021Z,2.10
2023-03-05T01:05:59.477Z,1.90
2023-03-05T01:08:26.463Z,2.33
2023-03-05T01:10:53.502Z,2.50
2023-03-05T01:13:21.023Z,2.83
2023-03-05T01:15:48.788Z,3.37
2023-03-05T01:18:18.088Z,2.60
2023-03-05T01:20:44.828Z,2.63
2023-03-05T01:23:11.550Z,2.33
2023-03-05T01:25:38.214Z,2.33
2023-03-05T01:28:05.042Z,2.67
2023-03-05T01:30:31.649Z,2.40
2023-03-05T01:33:00.433Z,2.20
2023-03-05T01:35:27.179Z,2.83
2023-03-05T01:37:54.460Z,1.93
2023-03-05T01:40:26.154Z,2.00
2023-03-05T01:43:12.649Z,2.17
2023-03-05T01:46:17.866Z,1.80
2023-03-05T01:48:54.741Z,2.27
2023-03-05T01:51:26.935Z,2.00
2023-03-05T01:53:58.055Z,2.63
2023-03-05T01:56:26.003Z,1.87
2023-03-05T01:58:54.700Z,1.93
2023-03-05T02:01:21.524Z,2.00
2023-03-05T02:03:48.662Z,3.20
2023-03-05T02:06:15.513Z,2.20
2023-03-05T02:08:42.119Z,2.10
2023-03-05T02:11:11.449Z,2.33
2023-03-05T02:13:40.873Z,3.57
2023-03-05T02:16:08.071Z,2.20
2023-03-05T02:18:37.236Z,2.30
2023-03-05T02:21:11.381Z,3.10
2023-03-05T02:23:38.874Z,2.40
2023-03-05T02:26:08.402Z,2.70
2023-03-05T02:28:45.533Z,2.60
2023-03-05T02:31:18.993Z,2.83
2023-03-05T02:33:49.306Z,3.40
2023-03-05T02:36:15.958Z,2.20
2023-03-05T02:38:43.546Z,2.40
2023-03-05T02:41:10.454Z,2.20
2023-03-05T02:43:39.766Z,2.03
2023-03-05T02:46:06.589Z,2.10
2023-03-05T02:48:35.940Z,1.67
2023-03-05T02:51:05.555Z,1.80
2023-03-05T02:53:32.151Z,1.60
2023-03-05T02:55:58.857Z,1.33
2023-03-05T02:58:25.524Z,1.90
2023-03-05T03:00:54.361Z,1.60
2023-03-05T03:03:23.146Z,2.10
2023-03-05T03:05:54.317Z,1.93
2023-03-05T03:08:21.029Z,1.73
2023-03-05T03:10:47.652Z,2.23
2023-03-05T03:13:14.286Z,2.10
2023-03-05T03:15:40.884Z,2.20
2023-03-05T03:18:07.552Z,1.90
2023-03-05T03:20:36.677Z,2.17
2023-03-05T03:23:08.575Z,2.17
2023-03-05T03:25:35.231Z,1.77
2023-03-05T03:28:01.863Z,1.93
2023-03-05T03:30:30.487Z,1.73
2023-03-05T03:32:57.102Z,1.77
2023-03-05T03:35:23.725Z,2.10
2023-03-05T03:37:50.449Z,2.00
2023-03-05T03:40:17.622Z,1.70
2023-03-05T03:42:44.286Z,2.00
2023-03-05T03:45:16.717Z,1.90
2023-03-05T03:47:45.094Z,1.63
2023-03-05T03:50:14.205Z,2.13
2023-03-05T03:52:45.635Z,2.00
2023-03-05T03:55:12.250Z,2.00
2023-03-05T03:57:41.131Z,2.30
2023-03-05T04:00:11.517Z,1.90
2023-03-05T04:02:38.341Z,2.47
2023-03-05T04:05:05.336Z,1.87
2023-03-05T04:07:31.963Z,1.93
2023-03-05T04:09:58.649Z,2.03
2023-03-05T04:12:25.270Z,2.30
2023-03-05T04:14:52.022Z,1.97
2023-03-05T04:17:20.781Z,2.50
2023-03-05T04:19:47.433Z,2.43
2023-03-05T04:22:18.229Z,2.53
2023-03-05T04:24:45.057Z,2.53
2023-03-05T04:27:13.110Z,2.00
2023-03-05T04:29:39.766Z,2.33
2023-03-05T04:32:06.916Z,2.27
2023-03-05T04:34:33.962Z,2.73
2023-03-05T04:37:02.775Z,2.13
2023-03-05T04:39:29.471Z,2.50
2023-03-05T04:41:58.383Z,2.03
2023-03-05T04:44:26.139Z,2.70
2023-03-05T04:46:52.829Z,2.60
2023-03-05T04:49:19.438Z,2.43
2023-03-05T04:51:46.088Z,2.50
2023-03-05T04:54:12.687Z,2.23
2023-03-05T04:56:39.272Z,3.17
2023-03-05T04:59:06.060Z,3.30
2023-03-05T05:01:35.490Z,3.27
2023-03-05T05:04:02.449Z,3.27
2023-03-05T05:06:29.145Z,3.07
2023-03-05T05:08:57.833Z,3.20
2023-03-05T05:11:24.495Z,3.30
2023-03-05T05:13:51.117Z,3.77
2023-03-05T05:16:22.319Z,3.83
2023-03-05T05:18:51.508Z,3.83
2023-03-05T05:21:20.664Z,4.00
2023-03-05T05:23:47.432Z,3.87
2023-03-05T05:26:16.542Z,4.07
2023-03-05T05:28:46.809Z,4.37
2023-03-05T05:31:16.028Z,4.43
2023-03-05T05:33:42.964Z,4.60
2023-03-05T05:36:15.853Z,4.57
2023-03-05T05:38:42.853Z,4.70
2023-03-05T05:41:12.532Z,5.30
2023-03-05T05:43:39.400Z,5.07
2023-03-05T05:46:08.888Z,5.00
2023-03-05T05:48:36.633Z,5.30
2023-03-05T05:51:08.993Z,5.50
2023-03-05T05:53:36.502Z,4.70
2023-03-05T05:56:07.801Z,5.47
2023-03-05T05:58:34.598Z,5.93
2023-03-05T06:01:01.384Z,6.83
2023-03-05T06:03:28.665Z,6.20
2023-03-05T06:05:55.814Z,5.57
2023-03-05T06:08:22.413Z,6.10
2023-03-05T06:10:55.508Z,6.00
2023-03-05T06:13:22.305Z,6.47
2023-03-05T06:15:57.747Z,6.80
2023-03-05T06:18:24.470Z,6.10
2023-03-05T06:20:59.343Z,6.37
2023-03-05T06:23:26.974Z,5.67
2023-03-05T06:25:53.897Z,5.53
2023-03-05T06:28:20.942Z,6.27
2023-03-05T06:30:47.869Z,5.97
2023-03-05T06:33:14.536Z,5.70
2023-03-05T06:35:41.687Z,5.50
2023-03-05T06:38:09.111Z,5.40
2023-03-05T06:40:39.282Z,5.43
2023-03-05T06:43:06.873Z,5.67
2023-03-05T06:45:35.981Z,5.17
2023-03-05T06:48:04.947Z,5.77
2023-03-05T06:50:35.876Z,6.10
2023-03-05T06:53:05.628Z,6.13
2023-03-05T06:55:39.642Z,5.93
2023-03-05T06:58:07.163Z,6.37
2023-03-05T07:00:34.300Z,6.20
2023-03-05T07:03:01.242Z,6.33
2023-03-05T07:05:28.044Z,6.10
2023-03-05T07:07:54.816Z,6.63
2023-03-05T07:10:21.526Z,5.97
2023-03-05T07:12:50.410Z,6.07
2023-03-05T07:15:17.149Z,6.60
2023-03-05T07:17:43.728Z,5.77
2023-03-05T07:20:10.927Z,6.07
2023-03-05T07:22:38.716Z,5.73
2023-03-05T07:25:05.847Z,5.90
2023-03-05T07:27:37.732Z,6.07
2023-03-05T07:30:05.270Z,5.47
2023-03-05T07:32:32.540Z,5.97
2023-03-05T07:35:03.961Z,5.00
2023-03-05T07:37:32.796Z,5.50
2023-03-05T07:39:59.562Z,4.90
2023-03-05T07:42:28.691Z,5.37
2023-03-05T07:44:55.419Z,5.20
2023-03-05T07:47:23.392Z,6.10
2023-03-05T07:49:50.281Z,5.70
2023-03-05T07:52:21.774Z,5.63
2023-03-05T07:54:48.649Z,5.87
2023-03-05T07:57:16.302Z,5.23
2023-03-05T07:59:43.315Z,5.03
2023-03-05T08:02:12.639Z,4.60
2023-03-05T08:04:40.382Z,4.50
2023-03-05T08:07:09.254Z,4.80
2023-03-05T08:09:35.837Z,4.22
2023-03-05T08:12:02.412Z,3.72
2023-03-05T08:14:32.075Z,3.65
2023-03-05T08:16:58.665Z,4.25
2023-03-05T08:19:25.247Z,3.90
2023-03-05T08:21:51.856Z,3.25
2023-03-05T08:24:21.102Z,3.33
2023-03-05T08:26:49.914Z,3.00
2023-03-05T08:29:16.510Z,3.20
2023-03-05T08:31:46.426Z,3.22
2023-03-05T08:34:15.745Z,3.50
2023-03-05T08:36:42.572Z,3.03
2023-03-05T08:39:09.984Z,2.83
2023-03-05T08:41:36.634Z,2.67
2023-03-05T08:44:07.385Z,2.35
2023-03-05T08:46:34.853Z,2.13
2023-03-05T08:49:03.663Z,2.20
2023-03-05T08:51:30.435Z,2.83
2023-03-05T08:53:59.365Z,2.15
2023-03-05T08:56:28.480Z,2.13
2023-03-05T08:58:55.182Z,2.08
2023-03-05T09:01:22.671Z,2.47
2023-03-05T09:03:52.257Z,2.40
2023-03-05T09:06:21.560Z,1.90
2023-03-05T09:08:48.228Z,1.30
2023-03-05T09:11:19.363Z,1.23
2023-03-05T09:13:46.046Z,1.30
2023-03-05T09:16:15.646Z,1.20
2023-03-05T09:18:42.802Z,1.20
2023-03-05T09:21:14.691Z,1.27
2023-03-05T09:23:42.297Z,1.10
2023-03-05T09:26:12.231Z,1.10
2023-03-05T09:28:40.582Z,1.05
2023-03-05T09:31:12.182Z,1.00
2023-03-05T09:33:41.653Z,1.10
2023-03-05T09:36:19.458Z,1.00
2023-03-05T09:38:46.275Z,0.95
2023-03-05T09:41:22.187Z,1.10
2023-03-05T09:44:15.432Z,1.27
2023-03-05T09:46:54.830Z,1.15
2023-03-05T09:49:28.830Z,1.35
2023-03-05T09:52:09.504Z,1.10
2023-03-05T09:54:41.699Z,1.30
2023-03-05T09:57:18.479Z,1.30
2023-03-05T09:59:59.073Z,1.20
2023-03-05T10:02:27.959Z,1.40
2023-03-05T10:05:09.774Z,1.27
2023-03-05T10:07:43.445Z,1.58
2023-03-05T10:10:14.823Z,1.40
2023-03-05T10:12:46.561Z,1.13
2023-03-05T10:15:16.078Z,1.25
2023-03-05T10:18:19.653Z,1.50
2023-03-05T10:21:18.975Z,1.10
2023-03-05T10:24:08.769Z,0.82
2023-03-05T10:27:06.010Z,0.90
2023-03-05T10:29:53.726Z,0.90
2023-03-05T10:32:48.345Z,1.65
2023-03-05T10:35:44.599Z,1.33
2023-03-05T10:38:33.132Z,1.38
2023-03-05T10:41:32.221Z,1.40
2023-03-05T10:44:15.598Z,1.40
2023-03-05T10:46:43.310Z,1.40
2023-03-05T10:49:25.196Z,1.48
2023-03-05T10:51:53.385Z,1.25
2023-03-05T10:54:29.696Z,1.52
2023-03-05T10:57:03.849Z,1.45
2023-03-05T10:59:32.399Z,1.20
2023-03-05T11:02:08.997Z,1.38
2023-03-05T11:04:38.853Z,1.20
2023-03-05T11:07:32.236Z,1.10
2023-03-05T11:10:04.827Z,1.67
2023-03-05T11:12:35.512Z,1.25
2023-03-05T11:15:10.989Z,1.67
2023-03-05T11:17:44.901Z,1.30
2023-03-05T11:20:23.692Z,1.40
2023-03-05T11:23:12.019Z,1.00
2023-03-05T11:26:01.275Z,1.40
2023-03-05T11:28:52.872Z,1.20
2023-03-05T11:31:19.655Z,1.05
2023-03-05T11:34:00.176Z,1.20
2023-03-05T11:36:31.731Z,0.98
2023-03-05T11:39:11.875Z,0.90
2023-03-05T11:42:00.660Z,0.85
2023-03-05T11:44:35.802Z,1.00
2023-03-05T11:47:16.846Z,0.77
2023-03-05T11:49:50.522Z,0.80
2023-03-05T11:52:26.393Z,0.85
2023-03-05T11:55:27.425Z,1.00
2023-03-05T11:58:22.576Z,0.90
2023-03-05T12:00:49.704Z,0.80
2023-03-05T12:03:23.115Z,0.70
2023-03-05T12:06:30.092Z,0.70
2023-03-05T12:08:59.953Z,0.80
2023-03-05T12:11:29.218Z,0.63
2023-03-05T12:14:35.852Z,0.70
2023-03-05T12:17:40.898Z,0.70
2023-03-05T12:20:27.228Z,0.90
2023-03-05T12:22:57.203Z,0.80
2023-03-05T12:25:30.216Z,1.10
2023-03-05T12:28:02.760Z,1.00
2023-03-05T12:30:36.323Z,0.68
2023-03-05T12:33:19.116Z,0.68
2023-03-05T12:35:54.196Z,0.80
2023-03-05T12:38:43.903Z,0.73
2023-03-05T12:41:53.639Z,0.70
2023-03-05T12:44:22.039Z,0.65
2023-03-05T12:47:12.042Z,0.60
2023-03-05T12:49:40.132Z,0.77
2023-03-05T12:52:26.589Z,0.90
2023-03-05T12:55:28.602Z,0.70
2023-03-05T12:58:04.864Z,0.70
2023-03-05T13:00:46.379Z,0.90
2023-03-05T13:03:22.071Z,0.80
2023-03-05T13:05:52.470Z,1.25
2023-03-05T13:08:35.554Z,1.00
2023-03-05T13:11:12.065Z,1.00
2023-03-05T13:13:43.858Z,0.90
2023-03-05T13:16:21.092Z,0.95
2023-03-05T13:18:52.397Z,0.80
2023-03-05T13:21:27.088Z,0.90
2023-03-05T13:23:59.690Z,0.90
2023-03-05T13:26:32.819Z,0.80
2023-03-05T13:29:11.666Z,0.93
2023-03-05T13:31:46.275Z,0.95
2023-03-05T13:34:46.186Z,0.70
2023-03-05T13:37:19.216Z,0.70
2023-03-05T13:40:02.535Z,0.80
2023-03-05T13:42:34.871Z,1.10
2023-03-05T13:45:04.480Z,0.88
2023-03-05T13:47:36.611Z,0.80
2023-03-05T13:50:07.457Z,0.70
2023-03-05T13:52:38.056Z,0.73
2023-03-05T13:55:14.646Z,1.00
2023-03-05T13:57:53.693Z,0.88
2023-03-05T14:00:39.072Z,0.70
2023-03-05T14:03:24.384Z,0.88
2023-03-05T14:05:52.189Z,0.95
2023-03-05T14:08:28.567Z,0.70
2023-03-05T14:10:57.576Z,0.90
2023-03-05T14:13:32.447Z,0.70
2023-03-05T14:16:09.923Z,1.15
2023-03-05T14:18:37.725Z,1.02
2023-03-05T14:21:09.697Z,0.68
2023-03-05T14:23:36.302Z,0.90
2023-03-05T14:26:34.961Z,0.80
2023-03-05T14:29:15.476Z,0.90
2023-03-05T14:31:48.224Z,0.80
2023-03-05T14:34:40.615Z,0.85
2023-03-05T14:37:24.672Z,0.77
2023-03-05T14:40:07.885Z,0.77
2023-03-05T14:42:38.394Z,0.93
2023-03-05T14:45:16.684Z,0.80
2023-03-05T14:47:43.353Z,0.70
2023-03-05T14:50:22.638Z,0.80
2023-03-05T14:52:52.674Z,0.80
2023-03-05T14:55:22.973Z,0.90
2023-03-05T14:57:51.725Z,0.73
2023-03-05T15:00:24.844Z,1.10
2023-03-05T15:02:51.517Z,1.10
2023-03-05T15:05:19.287Z,1.10
2023-03-05T15:07:46.648Z,0.90
2023-03-05T15:10:18.842Z,0.88
2023-03-05T15:12:50.580Z,1.08
2023-03-05T15:15:21.122Z,0.95
2023-03-05T15:17:57.507Z,1.00
2023-03-05T15:20:27.518Z,1.00
2023-03-05T15:22:56.545Z,0.90
2023-03-05T15:25:26.697Z,0.77
2023-03-05T15:27:53.301Z,0.80
2023-03-05T15:30:26.877Z,1.00
2023-03-05T15:32:55.109Z,0.98
2023-03-05T15:35:22.274Z,0.70
2023-03-05T15:37:51.135Z,0.85
2023-03-05T15:40:18.050Z,0.77
2023-03-05T15:42:47.044Z,0.70
2023-03-05T15:45:13.763Z,0.70
2023-03-05T15:47:40.433Z,0.70
2023-03-05T15:50:07.740Z,0.70
2023-03-05T15:52:34.502Z,0.80
2023-03-05T15:55:01.973Z,0.68
2023-03-05T15:57:29.171Z,0.90
2023-03-05T15:59:57.978Z,0.73
2023-03-05T16:02:29.455Z,0.77
2023-03-05T16:04:56.110Z,0.80
2023-03-05T16:07:25.718Z,0.88
2023-03-05T16:09:55.012Z,0.98
2023-03-05T16:12:26.398Z,0.88
2023-03-05T16:14:53.091Z,0.73
2023-03-05T16:17:22.210Z,0.90
2023-03-05T16:19:52.271Z,0.90
2023-03-05T16:22:19.096Z,1.60
2023-03-05T16:24:45.683Z,1.35
2023-03-05T16:27:13.090Z,1.38
2023-03-05T16:29:39.667Z,1.80
2023-03-05T16:32:08.866Z,1.88
2023-03-05T16:34:35.574Z,1.70
2023-03-05T16:37:04.540Z,1.73
2023-03-05T16:39:33.416Z,1.77
2023-03-05T16:42:00.080Z,2.33
2023-03-05T16:44:29.117Z,2.63
2023-03-05T16:46:56.490Z,2.40
2023-03-05T16:49:23.636Z,2.33
2023-03-05T16:51:50.203Z,2.60
2023-03-05T16:54:16.784Z,2.78
2023-03-05T16:56:48.124Z,2.85
2023-03-05T16:59:17.238Z,2.90
2023-03-05T17:01:44.830Z,3.15
2023-03-05T17:04:13.772Z,3.47
2023-03-05T17:06:40.610Z,3.38
2023-03-05T17:09:07.279Z,2.83
2023-03-05T17:11:33.883Z,2.70
2023-03-05T17:14:00.549Z,2.75
2023-03-05T17:16:27.241Z,2.40
2023-03-05T17:18:53.765Z,2.70
2023-03-05T17:21:20.321Z,2.90
2023-03-05T17:23:46.914Z,2.95
2023-03-05T17:26:17.819Z,2.80
2023-03-05T17:28:45.228Z,3.03
2023-03-05T17:31:14.236Z,2.95
2023-03-05T17:33:44.304Z,3.50
2023-03-05T17:36:16.944Z,3.00
2023-03-05T17:38:47.665Z,2.67
2023-03-05T17:41:15.926Z,2.17
2023-03-05T17:43:43.089Z,2.40
2023-03-05T17:46:10.087Z,2.03
2023-03-05T17:48:39.095Z,1.67
2023-03-05T17:51:07.442Z,2.30
2023-03-05T17:53:35.188Z,1.85
2023-03-05T17:56:02.341Z,1.77
2023-03-05T17:58:28.976Z,2.20
2023-03-05T18:00:55.581Z,2.20
2023-03-05T18:03:24.656Z,1.90
2023-03-05T18:05:54.405Z,2.15
2023-03-05T18:08:21.178Z,2.55
2023-03-05T18:10:47.840Z,2.75
2023-03-05T18:13:14.464Z,1.98
2023-03-05T18:15:47.398Z,1.50
2023-03-05T18:18:15.681Z,2.25
2023-03-05T18:20:42.593Z,2.70
2023-03-05T18:23:10.047Z,3.00
2023-03-05T18:25:36.673Z,3.55
2023-03-05T18:28:07.227Z,4.95
2023-03-05T18:30:34.344Z,4.05
2023-03-05T18:33:01.436Z,3.17
2023-03-05T18:35:29.323Z,3.20
2023-03-05T18:37:57.108Z,3.72
2023-03-05T18:40:26.246Z,3.72
2023-03-05T18:42:52.915Z,3.60
2023-03-05T18:45:21.544Z,3.20
2023-03-05T18:47:49.088Z,2.22
2023-03-05T18:50:18.637Z,2.80
2023-03-05T18:52:46.371Z,2.87
2023-03-05T18:55:21.200Z,3.00
2023-03-05T18:57:50.062Z,2.90
2023-03-05T19:00:24.682Z,1.80
2023-03-05T19:02:51.422Z,1.57
2023-03-05T19:05:18.838Z,1.80
2023-03-05T19:07:45.827Z,1.67
2023-03-05T19:10:14.641Z,1.80
2023-03-05T19:12:55.638Z,1.40
2023-03-05T19:15:22.958Z,1.67
2023-03-05T19:17:50.085Z,1.50
2023-03-05T19:20:18.006Z,1.67
2023-03-05T19:22:46.871Z,1.80
2023-03-05T19:25:13.856Z,1.85
2023-03-05T19:27:40.576Z,1.45
2023-03-05T19:30:08.337Z,1.80
2023-03-05T19:32:35.260Z,2.37
2023-03-05T19:35:02.532Z,2.40
2023-03-05T19:37:33.166Z,3.00
2023-03-05T19:39:59.823Z,3.37
2023-03-05T19:42:26.782Z,3.80
2023-03-05T19:44:54.424Z,3.53
2023-03-05T19:47:24.256Z,3.30
2023-03-05T19:49:50.875Z,3.10
2023-03-05T19:52:19.908Z,2.78
2023-03-05T19:54:48.729Z,3.25
2023-03-05T19:57:15.307Z,2.22
2023-03-05T19:59:44.096Z,2.70
2023-03-05T20:02:13.048Z,2.57
2023-03-05T20:04:39.636Z,2.80
2023-03-05T20:07:11.029Z,3.17
2023-03-05T20:09:37.660Z,3.00
2023-03-05T20:12:05.629Z,3.27
2023-03-05T20:14:34.412Z,2.87
2023-03-05T20:17:01.016Z,3.17
2023-03-05T20:19:27.688Z,3.63
2023-03-05T20:21:54.264Z,3.03
2023-03-05T20:24:23.262Z,3.57
2023-03-05T20:26:49.893Z,3.30
2023-03-05T20:29:19.207Z,3.30
2023-03-05T20:31:50.040Z,3.53
2023-03-05T20:34:22.606Z,4.00
2023-03-05T20:36:49.372Z,3.80
2023-03-05T20:39:19.254Z,3.77
2023-03-05T20:41:46.909Z,3.50
2023-03-05T20:44:16.542Z,2.90
2023-03-05T20:46:53.724Z,3.40
2023-03-05T20:49:20.469Z,3.53
2023-03-05T20:51:50.235Z,2.97
2023-03-05T20:54:20.200Z,2.93
2023-03-05T20:56:47.780Z,3.00
2023-03-05T20:59:14.573Z,3.30
2023-03-05T21:01:41.390Z,3.10
2023-03-05T21:04:08.701Z,3.27
2023-03-05T21:06:36.012Z,3.67
2023-03-05T21:09:03.227Z,3.10
2023-03-05T21:11:29.957Z,2.97
2023-03-05T21:13:59.332Z,3.40
2023-03-05T21:16:27.431Z,3.50
2023-03-05T21:18:57.420Z,3.20
2023-03-05T21:21:24.926Z,3.00
2023-03-05T21:23:54.150Z,3.40
2023-03-05T21:26:20.971Z,2.77
2023-03-05T21:28:47.942Z,3.23
2023-03-05T21:31:18.857Z,2.90
2023-03-05T21:33:48.123Z,3.03
2023-03-05T21:36:18.787Z,3.30
2023-03-05T21:38:49.289Z,3.73
2023-03-05T21:41:18.090Z,3.90
2023-03-05T21:43:44.889Z,3.37
2023-03-05T21:46:11.688Z,3.60
2023-03-05T21:48:38.392Z,3.80
2023-03-05T21:51:09.095Z,3.30
2023-03-05T21:53:36.323Z,3.60
2023-03-05T21:56:19.469Z,3.83
2023-03-05T21:58:50.911Z,4.00
2023-03-05T22:01:19.558Z,4.10
2023-03-05T22:03:47.271Z,3.90
2023-03-05T22:06:18.258Z,3.67
2023-03-05T22:08:45.110Z,2.40
2023-03-05T22:11:14.768Z,2.40
2023-03-05T22:13:41.928Z,2.63
2023-03-05T22:16:09.360Z,2.77
2023-03-05T22:18:36.823Z,2.27
2023-03-05T22:21:04.212Z,2.17
2023-03-05T22:23:34.727Z,2.60
2023-03-05T22:26:05.117Z,2.77
2023-03-05T22:28:33.081Z,2.50
2023-03-05T22:31:01.988Z,2.60
2023-03-05T22:33:29.069Z,2.90
2023-03-05T22:35:55.794Z,2.20
2023-03-05T22:38:25.785Z,2.30
2023-03-05T22:40:53.052Z,2.43
2023-03-05T22:43:22.427Z,2.33
2023-03-05T22:45:49.344Z,2.10
2023-03-05T22:48:16.584Z,2.60
2023-03-05T22:50:48.919Z,2.50
2023-03-05T22:53:15.492Z,2.97
2023-03-05T22:55:42.869Z,2.80
2023-03-05T22:58:10.006Z,2.47
2023-03-05T23:00:37.390Z,2.43
2023-03-05T23:03:04.201Z,2.57
2023-03-05T23:05:30.802Z,2.40
2023-03-05T23:07:59.954Z,2.63
2023-03-05T23:10:28.796Z,2.53
2023-03-05T23:12:58.123Z,2.10
2023-03-05T23:15:30.842Z,2.30
2023-03-05T23:17:58.462Z,2.63
2023-03-05T23:20:30.291Z,2.40
2023-03-05T23:22:57.125Z,2.47
2023-03-05T23:25:27.785Z,2.70
2023-03-05T23:27:54.875Z,2.07
2023-03-05T23:30:32.020Z,2.37
2023-03-05T23:33:00.526Z,2.90
2023-03-05T23:35:32.747Z,3.07
2023-03-05T23:38:01.488Z,3.20
2023-03-05T23:40:35.702Z,2.63
2023-03-05T23:43:02.798Z,3.00
2023-03-05T23:45:32.085Z,3.07
2023-03-05T23:47:59.387Z,2.70
2023-03-05T23:50:37.768Z,2.90
2023-03-05T23:53:07.560Z,3.70
2023-03-05T23:55:38.709Z,3.10
2023-03-05T23:58:05.367Z,2.93
